Thursday, May 26, 2016, 8:13 PM EDT

KRDG, Reading Regional Airport

Location: Reading, PA, United States Lat: 40.367
Local Time: 8:13 PM EDT ( 0:13 GMT) Lon: -75.967
Time Zone: US/Eastern Elev: 344 ft

Show me the last for .
Show Decoded

2016-05-26 19:54 METAR KRDG 262354Z 17005KT 10SM BKN095 28/15 A3001 RMK AO2 SLP163 T02780150
                 10317 20278 56004 =
2016-05-26 18:54 METAR KRDG 262254Z 18006KT 10SM BKN090 29/14 A3001 RMK AO2 SLP163 T02890144 =
2016-05-26 17:54 METAR KRDG 262154Z AUTO 20008KT 10SM BKN090 29/14 A3000 RMK AO2 SLP162 T02940144
                 =
2016-05-26 16:54 METAR KRDG 262054Z AUTO 20005KT 10SM FEW090 31/13 A3002 RMK AO2 SLP167 T03060133
                 58009 =
2016-05-26 15:54 METAR KRDG 261954Z AUTO 17007KT 10SM SCT080 32/13 A3003 RMK AO2 SLP170 T03170133
                 =
2016-05-26 14:54 METAR KRDG 261854Z AUTO 19011KT 10SM CLR 31/13 A3004 RMK AO2 SLP174 T03110133 =
2016-05-26 13:54 METAR KRDG 261754Z AUTO 22011KT 10SM CLR 31/11 A3005 RMK AO2 SLP176 T03110111
                 10317 20194 58012 =
2016-05-26 12:54 METAR KRDG 261654Z AUTO 22009G16KT 10SM CLR 31/13 A3006 RMK AO2 SLP181 T03060128
                 =
2016-05-26 11:54 METAR KRDG 261554Z AUTO 21008G14KT 10SM CLR 30/12 A3008 RMK AO2 SLP187 T03000122
                 =
2016-05-26 10:54 METAR KRDG 261454Z AUTO 00000KT 10SM CLR 28/14 A3008 RMK AO2 SLP188 T02830144
                 58015 =
2016-05-26 09:54 METAR KRDG 261354Z AUTO 00000KT 10SM CLR 25/13 A3010 RMK AO2 SLP195 T02500133 =
2016-05-26 08:54 METAR KRDG 261254Z AUTO 00000KT 10SM CLR 23/14 A3012 RMK AO2 SLP201 T02280144 =
2016-05-26 07:54 METAR KRDG 261154Z AUTO 00000KT 4SM HZ CLR 19/13 A3013 RMK AO2 SLP204 T01940133
                 10194 20144 51009 =
2016-05-26 06:54 METAR KRDG 261054Z AUTO 00000KT 10SM CLR 16/13 A3012 RMK AO2 SLP202 T01610128 =
2016-05-26 05:54 METAR KRDG 260954Z AUTO 32003KT 10SM CLR 14/12 A3011 RMK AO2 SLP200 T01440122 =
2016-05-26 04:54 METAR KRDG 260854Z AUTO 00000KT 10SM CLR 16/12 A3010 RMK AO2 SLP195 T01560117
                 53002 =
2016-05-26 03:54 METAR KRDG 260754Z AUTO 00000KT 10SM CLR 16/12 A3009 RMK AO2 SLP193 T01610122 =
2016-05-26 02:54 METAR KRDG 260654Z AUTO 00000KT 10SM CLR 16/12 A3009 RMK AO2 SLP191 T01610117 =
2016-05-26 01:54 METAR KRDG 260554Z AUTO 00000KT 10SM CLR 17/12 A3009 RMK AO2 SLP193 T01720122
                 10261 20172 53002 =
2016-05-26 00:54 METAR KRDG 260454Z AUTO 00000KT 10SM CLR 17/12 A3009 RMK AO2 SLP192 T01720122
                 403000106 =
2016-05-25 23:54 METAR KRDG 260354Z AUTO 00000KT 10SM CLR 18/12 A3009 RMK AO2 SLP191 T01830122 =
2016-05-25 22:54 METAR KRDG 260254Z AUTO 00000KT 10SM CLR 22/10 A3009 RMK AO2 SLP190 T02170100
                 51008 =
2016-05-25 21:54 METAR KRDG 260154Z AUTO 25003KT 10SM CLR 23/10 A3008 RMK AO2 SLP189 T02330100 =
2016-05-25 20:54 METAR KRDG 260054Z AUTO 22003KT 10SM CLR 26/09 A3007 RMK AO2 SLP185 T02560094 =

Support USWX by starting your Amazon purchase here.